Terminal Aerodrome Forecast
Issued by NWS

Home | Current Version | Previous Version | Text Only | Print | Product List | Glossary On
Versions: 1 2 3 4 5 6 7 8 9 10 11 12 13 14 15 16 17 18 19
000
FTAK31 PANC 061124
TAFACD
TAF
PACD 061124Z 0612/0712 29015G22KT P6SM -SHRA SCT025 BKN035
      TEMPO 0612/0616 -SHRASN BKN025
     FM061600 32015G25KT P6SM -SHSN BKN025 BKN040
     FM062100 32020G32KT P6SM VCSH BKN025 BKN040=

USA.gov is the U.S. government's official web portal to all federal, state and local government web resources and services.